Desk Aeronautico è consultabile gratuitamente, la pubblicità è l'unico modo per mantenere il sito online. Cercheremo di renderla il meno invasiva possibile, disattiva AdBlock!

Ultimi METAR emessi

Il METAR (Aerodrome routine meteorological report) è un messaggio codificato che descrive le condizioni meteorologiche osservate da una stazione meteo. I METAR sono reperibili presso gli ARO competenti. Scopri come leggere i METAR dalla nostra guida.

La lista degli ultimi METAR emessi da stazioni meteorologiche italiane sono elencati a seguire a puro scopo informativo. L’elenco degli indicatori di località ICAO è disponibile qui.


METAR LIBA 181655Z 23005KT 9999 SCT030 SCT060 09/04 Q1019 RMK BKN VIS MIN 9999 WIND THR11 23006KT BLU=
METAR LIBC 181650Z 23009KT 9999 FEW040 11/07 Q1020=
METAR LIBD 181650Z 21004KT CAVOK 11/06 Q1019=
METAR LIBE 181655Z 25005KT 9999 SCT015 05/02 Q1016 RMK BKN SCT090 MON LIB VAL NIL VIS MIN 9999=
METAR LIBF 181450Z 24008KT 9999 FEW030 SCT060 12/04 Q1018=
METAR LIBG 181650Z 12004KT 9999 FEW045 11/11 Q1019=
METAR LIBH 181655Z 32005KT CAVOK 10/09 Q1018 RMK FEW FEW060 QUK / QUL / VIS MAR 20 KM VIS MIN 9999=
METAR LIBN 181655Z 17004KT CAVOK 09/07 Q1020 RMK BKN FEW060 SCT090 VIS MIN 9999 WIND THR14 16005KT WIND THR32 16004KT BLU=
METAR LIBP 181650Z AUTO 34006KT 310V030 8000 BKN054/// BKN068/// 09/07 Q1020=
METAR LIBQ 181655Z 22010KT 0000 -RA FG VV/// 01/01 Q1018 RMK MON INVIS VAL INVIS VIS MIN 0000=
METAR LIBR 181650Z 19006KT CAVOK 12/08 Q1020=
METAR LIBS 181655Z 27010KT 9999 SCT030 07/06 Q1018 RMK SCT MON INVIS VIS MIN 9999=
METAR LIBT 181655Z 07003KT CAVOK 12/10 Q1019 RMK BKN BKN080 QUK / QUL / VIS MAR 15 KM VIS MIN 9999=
METAR LIBU 181655Z 04009KT 5000 BR FEW003 BKN010 04/02 Q1020 RMK OVC MON INC NC VAL FOSCHIA VIS MIN 5000=
METAR LIBV 181555Z 21003KT 7000 SCT020 07/07 Q1018 RMK SCT VIS MIN 7000 WIND THR32 21004KT WIND THR14 21004KT WHT=
METAR LIBW 181655Z 30005KT 9999 SCT013 FEW020TCU 08/06 Q1020 RMK BKN QUK / QUL / VIS MAR 15 KM MON GEN INC VAL NIL VIS MIN 9999=
METAR LIBY 181655Z 19005KT CAVOK 11/07 Q1021 RMK FEW FEW090 QUK / QUL / VIS MAR 10 KM VIS MIN 9999=
METAR LICA 181650Z 28009KT 9999 SCT015 12/09 Q1022=
METAR LICB 181650Z 27009KT CAVOK 11/08 Q1023=
METAR LICC 181650Z 36004KT 290V070 9999 SCT070 14/08 Q1022=
METAR LICD 181650Z 32012KT CAVOK 14/06 Q1026=
METAR LICE 181655Z 00000KT 9999 FEW007 05/04 Q1019 RMK SCT SCT200 MON CLD CIME NC VAL NIL NC VIS MIN 9999=
METAR LICF 181655Z 34007KT 9999 -DZ SCT020 14/10 Q1022 RMK BKN BKN080 QUK / QUL / VIS MAR 14 KM MON INVIS VAR RAPID VIS MIN 9999=
METAR LICG 181650Z 29014KT 9999 FEW020 13/07 Q1026=
METAR LICJ 181650Z 30007KT 9999 SCT030 14/08 Q1024=
METAR LICL 181655Z 28011KT 250V320 CAVOK 13/10 Q1023 RMK BKN SCT060 SCT200 QUK / QUL / VIS MAR 12 KM VIS MIN 9999=
METAR LICO 181655Z 30008KT CAVOK 13/11 Q1022 RMK SCT SCT080 QUK / QUL / VIS MAR 25 KM VIS MIN 9999=
METAR LICR 181650Z 02011KT 9999 SCT040 13/06 Q1023 RERA=
METAR LICT 181655Z 31011KT 9999 FEW025 SCT030 13/07 Q1024 RMK BKN VIS MIN 9999 WIND THR13 29012KT BLU=
METAR LICU 181655Z 33010KT 290V360 9999 BKN030 12/07 Q1024 RMK BKN QUK 4 QUL 3 SE VIS MAR 20 KM VIS MIN 9999=
METAR LICX 171055Z 03012KT 9999 SCT005 07/02 Q1025 RMK SCT MON GEN INC NC VAL NIL NC VIS MIN 9999=
METAR LICZ 181655Z /////KT 9999 SCT020 13/05 Q1023 RMK SCT VIS MIN 9999 WIND THR28 /////KT WIND THR10 /////KT A3022 BLU=
METAR LIEA 181650Z 28007KT 250V310 CAVOK 12/06 Q1025=
METAR LIEB 181655Z 34016KT CAVOK 12/M03 Q1022 RMK BKN FEW100 SCT200 QUK / QUL / VIS MAR 20 KM MON INVIS VIS MIN 9999=
METAR LIEC 181655Z 30024KT 9999 FEW017 12/09 Q1024 RMK BKN BKN100 QUK / QUL / VIS MAR 20 KM VIS MIN 9999=
METAR LIED 181555Z 29009KT 9999 SCT035 12/06 Q1025 RMK BKN SCT200 VIS MIN 9999 WIND THR35 30010KT WIND THR17 /////KT BLU=
METAR LIEE 181650Z 32009KT 9999 FEW040 12/06 Q1025=
METAR LIEF 181655Z 30008KT 9999 SCT020 12/11 Q1026 RMK BKN SCT060 QUK / QUL / VIS MAR 20 KM VIS MIN 9999=
METAR LIEH 181655Z 28011KT 9999 FEW020 12/08 Q1025 RMK BKN SCT060 QUK 4 QUL 0 VIS MAR 15 KM VIS MIN 9999=
METAR LIEL 171055Z 26003KT CAVOK 14/03 Q1028 RMK FEW FEW180 VIS MAR 18 KM MON LIB VIS MIN 9999=
METAR LIEO 181650Z 26013KT 9999 SCT030 12/04 Q1023=
METAR LIEP 170955Z /////KT 9999 FEW070 08/02 Q1027 RMK FEW VIS MIN 9999=
METAR LIMC 181650Z 14004KT CAVOK 05/05 Q1022 NOSIG=
METAR LIME 181650Z VRB02KT 1500 BR SCT003 BKN015 06/06 Q1022 NOSIG=
METAR LIMF 181650Z VRB01KT CAVOK 07/02 Q1022=
METAR LIMG 181650Z 25003KT 230V310 CAVOK 08/07 Q1023=
METAR LIMH 181655Z 02026KT CAVOK M15/M30 Q1015 RMK SKC MON LIB VAL NIL VIS MIN 9999=
METAR LIMJ 181650Z 08008KT CAVOK 10/03 Q1021=
METAR LIMK 181655Z 00000KT CAVOK 06/01 Q1021 RMK SKC VAL FOSCHIA SKC SUP VIS MIN 9999=
METAR LIML 181650Z 19003KT CAVOK 06/05 Q1023 NOSIG=
METAR LIMN 171755Z 34004KT CAVOK 03/01 Q1022 RMK BKN BKN080 VIS MIN 9999 BLU=
METAR LIMP 181650Z 23003KT 3000 BR BKN030 07/07 Q1023=
METAR LIMS 181655Z 23001KT 9999 BKN080 06/06 Q1022 RMK BKN VIS MIN 9999 WIND THR30 00000KT BLU=
METAR LIMU 181655Z 24004KT 9999 FEW023 10/06 Q1021 RMK SCT SCT200 QUK / QUL / VIS MAR 25 KM VIS MIN 9999=
METAR LIMV 181655Z /////KT CAVOK 05/03 Q1021 RMK SCT FEW080 MON LIB NC VAL NIL VIS MIN 9999=
METAR LIMY 181655Z /////KT CAVOK 08/01 Q1021 RMK FEW FEW200 VAL NIL VIS MIN 9999=
METAR LIMZ 181650Z VRB02KT 9999 MIFG NSC 05/05 Q1022=
METAR LIPA 181655Z 27002KT 9999 BKN055 07/06 Q1021 RMK BKN VIS MIN 9999 WIND THR05 /////KT WIND THR23 /////KT A3017 BLU=
METAR LIPB 181650Z VRB05KT 9999 SCT070 BKN100 10/M06 Q1023 RMK MON LIB=
METAR LIPC 181655Z 28013KT 3000 BR SCT010 BKN040 06/04 Q1022 RMK OVC VIS MIN 3000 WIND THR11 ///// KT WIND THR29 28010KT YLO=
METAR LIPE 181650Z 27007KT 9999 SCT009 BKN018 06/05 Q1023=
METAR LIPF 181655Z /////KT 3000 BR SCT020 BKN025 07/06 Q1022 RMK OVC VIS MIN 3000=
METAR LIPH 181650Z 35004KT 320V020 7000 RA BKN040 08/07 Q1023=
METAR LIPI 171055Z 06003KT CAVOK 12/02 Q1024 RMK SCT SCT200 VIS MIN 9999 WIND THR06 09003KT WIND THR24 09003KT BLU=
METAR LIPK 171650Z VRB02KT CAVOK 07/M02 Q1024=
METAR LIPL 181655Z 25003KT 2000 BR SCT040 BKN070 05/04 Q1022 RMK OVC VIS MIN 2000 WIND THR31 /////KT WIND THR13 25003KT YLO=
METAR LIPO 181650Z 24004KT 1500 BR BKN005 06/06 Q1023=
METAR LIPQ 181650Z 10007KT 9999 BKN070 08/04 Q1022=
METAR LIPR 181650Z 26012KT 6000 SCT010 OVC025 07/05 Q1021=
METAR LIPS 181655Z /////KT 6000 -RA BKN030 BKN080 07/06 Q1022 RMK OVC VIS MIN 6000 WIND THR26 00000KT WIND THR08 00000KT WHT=
METAR LIPU 181450Z VRB02KT 3000 RA BR SCT018 07/07 Q1022=
METAR LIPX 181650Z VRB01KT 9999 -DZ SCT025 BKN060 06/06 Q1023=
METAR LIPY 181650Z 27003KT 230V340 6000 DZ SCT015 OVC060 07/06 Q1021=
METAR LIPZ 181650Z 33007KT 3500 RA BR BKN035 BKN045 07/06 Q1022 NOSIG=
METAR LIQB 181655Z 30003KT 9999 FEW005 BKN030 07/06 Q1020 RMK BKN VIS MIN 9999=
METAR LIQC 181555Z 13002KT 9999 BKN015 10/08 Q1020 RERA RMK BKN QUK 3 QUL 2 W VIS MAR 10 KM VIS MIN 9999=
METAR LIQJ 181655Z 32022KT 9999 FEW040 13/08 Q1020 RMK SCT QUK / QUL / VIS MAR 25 KM VIS MIN 9999=
METAR LIQK 181555Z 00000KT 9999 -RA SCT030 SCT060 11/09 Q1021 RMK BKN QUK 1 QUL 0 VIS MAR 15 KM VIS MIN 9999=
METAR LIQN 181650Z VRB02KT 2000 0600N FG BKN040 06/06 Q1019=
METAR LIQO 181655Z 30015KT 9999 SCT003 07/05 Q1018 RMK SCT VAL NIL NC VIS MIN 9999=
METAR LIQR 170955Z 00000KT 9999 SCT018 07/01 Q1030 RMK BKN SCT070 MON W CLD CIME ABB SLW VAL FOSCHIA NC VIS MIN 9999=
METAR LIQW 171055Z /////KT 9999 FEW040 06/04 Q1027 RMK OVC BKN070 VIS MIN 9999 WIND THR18 32005KT BLU=
METAR LIQZ 181655Z VRB11KT 9999 BKN015 11/11 Q1020 RMK BKN QUK / QUL / VIS MAR 10 KM VIS MIN 9999=
METAR LIRA 181650Z 16002KT 9999 SCT025 BKN040 10/08 Q1020=
METAR LIRB 181655Z 28005KT 260V320 9999 FEW015 FEW016TCU SCT026 09/08 Q1020 RMK BKN BKN060 VIS MIN 9999=
METAR LIRE 181655Z 35005KT 9999 FEW016 SCT030 11/10 Q1020 RMK BKN VIS MIN 9999 WIND THR13 36005KT WIND THR31 35006KT BLU=
METAR LIRF 181650Z 32008KT 9999 SCT050 11/09 Q1020 NOSIG=
METAR LIRG 171755Z 04006KT CAVOK 07/04 Q1025 RMK FEW FEW200 MON NE LIB NC VIS MIN 9999 BLU=
METAR LIRH 171755Z 29002KT 4000 BR NSC 07/03 Q1023 RMK SKC MON INVIS NC VIS MIN 4000 WIND THR16 /////KT GRN=
METAR LIRL 171755Z 32003KT CAVOK 09/07 Q1025 RMK FEW FEW200 MON INVIS NC VIS MIN 9999 WIND THR12 32004KT WIND THR30 30002KT BLU=
METAR LIRM 181655Z 35004KT 9999 FEW025 BKN060 08/06 Q1020 RMK BKN VIS MIN 9999 WIND THR06 /////KT BLU=
METAR LIRN 181650Z VRB02KT 9999 -RA SCT020 BKN040 11/08 Q1020 NOSIG=
METAR LIRP 181645Z 13004KT 9999 FEW025 SCT050 09/08 Q1021 NOSIG RMK BKN VIS MIN 9999 WIND THR04 14005KT WIND THR22 14004KT BLU=
METAR LIRQ 181650Z VRB02KT 9999 SCT045 BKN065 09/04 Q1021=
METAR LIRS 181655Z 35005KT 9999 SCT015 BKN040 10/07 Q1021 RMK BKN VIS MIN 9999 WIND THR03 34004KT WIND THR21 36006KT BLU=
METAR LIRT 181555Z 25011KT 210V320 9999 BKN003 02/M00 Q1018 RMK BKN MON INC VAL NIL VIS MIN 9999=
METAR LIRU 181550Z VRB03KT 9999 BKN040 11/09 Q1020=
METAR LIRV 181655Z 22004KT 9999 SCT016 BKN030 09/08 Q1020 RMK OVC MON E SE CIME INC NC VIS MIN 9999 WIND THR04 ///// KT BLU=
METAR LIRX 181655Z 35018KT 9999 BKN010 08/06 Q1019 RMK BKN VIS MIN 9999 VIS MAR 20 KM=
METAR LIRZ 181650Z 34003KT 9999 SCT015 BKN025 08/08 Q1020=
METAR LIVD 181655Z 26003KT 5000 -SN OVC020 01/M03 Q1022 RMK OVC VIS MIN 5000=
METAR LIVE 181655Z 04007KT 9999 FEW030 M03/M06 Q1021 RMK SCT SCT070 VIS MIN 9999=
METAR LIVF 181655Z 28008KT 0200 -RA FG VV/// 05/05 Q1018 RMK MON INVIS VAL INVIS VIS MIN 0200=
METAR LIVM 181655Z AUTO 30007KT 260V340 //// 07/07 Q1021=
METAR LIVO 181655Z 00000KT 9000 FEW010 BKN030 02/M00 Q1020 RMK OVC VIS MIN 9000=
METAR LIVP 181655Z 35018KT 0000 FZFG VV/// M07/M08 Q1016 RMK MON INVIS VAL INVIS VIS MIN 0000=
METAR LIVR 181455Z 26008KT 0300 -SN FZFG VV/// M04/M05 Q1015 RESN RMK MON INVIS VIS MIN 0300=
METAR LIVT 181655Z /////KT 9999 SCT025 07/01 Q1021 RMK OVC BKN060 QUK / QUL / VIS MAR 15 KM VIS MIN 9999=

Informazioni elaborate dal Servizio Meteorologico dell’Aeronautica Militare e pubblicate sul sito www.meteoam.it